createdAt,value
2018-02-11T00:00:52.227Z,98650.91
2018-02-11T00:03:20.513Z,98650.41
2018-02-11T00:05:48.790Z,98661.33
2018-02-11T00:08:17.076Z,98649.74
2018-02-11T00:10:45.374Z,98646.66
2018-02-11T00:13:13.682Z,98636.85
2018-02-11T00:15:41.955Z,98629.39
2018-02-11T00:18:10.262Z,98631.39
2018-02-11T00:20:38.567Z,98623.16
2018-02-11T00:23:10.571Z,98623.53
2018-02-11T00:25:38.975Z,98614.63
2018-02-11T00:28:07.276Z,98602.02
2018-02-11T00:30:35.571Z,98605.38
2018-02-11T00:33:03.879Z,98596.86
2018-02-11T00:35:32.510Z,98594.24
2018-02-11T00:38:06.509Z,98588.41
2018-02-11T00:40:34.792Z,98582.30
2018-02-11T00:43:03.088Z,98584.94
2018-02-11T00:45:31.400Z,98580.22
2018-02-11T00:47:59.667Z,98571.98
2018-02-11T00:50:27.987Z,98566.09
2018-02-11T00:52:56.267Z,98569.27
2018-02-11T00:55:24.551Z,98563.92
2018-02-11T00:57:52.869Z,98575.05
2018-02-11T01:00:21.147Z,98564.06
2018-02-11T01:02:49.424Z,98550.80
2018-02-11T01:05:17.685Z,98553.55
2018-02-11T01:07:45.985Z,98548.05
2018-02-11T01:10:14.269Z,98539.23
2018-02-11T01:12:42.599Z,98540.31
2018-02-11T01:15:10.864Z,98545.36
2018-02-11T01:17:39.129Z,98526.70
2018-02-11T01:20:07.403Z,98516.80
2018-02-11T01:22:35.696Z,98509.77
2018-02-11T01:25:04.227Z,98503.98
2018-02-11T01:27:32.487Z,98489.81
2018-02-11T01:30:00.778Z,98497.41
2018-02-11T01:32:29.058Z,98481.57
2018-02-11T01:34:57.348Z,98483.05
2018-02-11T01:37:25.642Z,98473.29
2018-02-11T01:39:53.907Z,98475.63
2018-02-11T01:42:22.189Z,98472.42
2018-02-11T01:44:50.441Z,98471.28
2018-02-11T01:47:18.726Z,98464.94
2018-02-11T01:49:58.866Z,98461.64
2018-02-11T01:52:27.170Z,98445.31
2018-02-11T01:54:55.468Z,98446.91
2018-02-11T01:57:23.748Z,98443.66
2018-02-11T01:59:52.063Z,98441.16
2018-02-11T02:02:20.341Z,98431.78
2018-02-11T02:04:48.631Z,98437.74
2018-02-11T02:07:16.900Z,98436.73
2018-02-11T02:09:45.184Z,98431.20
2018-02-11T02:12:13.491Z,98432.75
2018-02-11T02:14:41.797Z,98425.17
2018-02-11T02:17:10.075Z,98419.09
2018-02-11T02:19:38.369Z,98426.06
2018-02-11T02:22:06.643Z,98415.39
2018-02-11T02:24:34.899Z,98411.44
2018-02-11T02:27:03.190Z,98401.91
2018-02-11T02:29:31.472Z,98411.03
2018-02-11T02:31:59.767Z,98399.81
2018-02-11T02:34:28.040Z,98397.16
2018-02-11T02:36:56.365Z,98401.98
2018-02-11T02:39:24.597Z,98380.21
2018-02-11T02:41:52.904Z,98374.44
2018-02-11T02:44:21.155Z,98375.85
2018-02-11T02:46:49.468Z,98365.64
2018-02-11T02:49:17.784Z,98361.52
2018-02-11T02:51:46.070Z,98353.81
2018-02-11T02:54:14.400Z,98354.87
2018-02-11T02:56:42.705Z,98349.76
2018-02-11T02:59:10.955Z,98346.80
2018-02-11T03:01:39.239Z,98326.61
2018-02-11T03:04:07.508Z,98331.63
2018-02-11T03:06:35.823Z,98328.42
2018-02-11T03:09:05.034Z,98317.40
2018-02-11T03:11:33.338Z,98274.52
2018-02-11T03:14:01.621Z,98313.94
2018-02-11T03:16:29.875Z,98305.49
2018-02-11T03:18:58.165Z,98300.27
2018-02-11T03:21:26.426Z,98290.41
2018-02-11T03:23:54.781Z,98278.94
2018-02-11T03:26:23.031Z,98280.91
2018-02-11T03:28:51.320Z,98277.91
2018-02-11T03:31:19.624Z,98275.16
2018-02-11T03:33:47.879Z,98268.53
2018-02-11T03:36:16.156Z,98274.33
2018-02-11T03:38:44.407Z,98279.98
2018-02-11T03:41:12.708Z,98271.23
2018-02-11T03:43:40.961Z,98254.31
2018-02-11T03:46:09.244Z,98248.50
2018-02-11T03:48:37.501Z,98255.05
2018-02-11T03:51:05.810Z,98251.01
2018-02-11T03:53:34.088Z,98246.33
2018-02-11T03:56:02.364Z,98249.89
2018-02-11T03:58:30.691Z,98250.91
2018-02-11T04:00:59.018Z,98252.27
2018-02-11T04:03:27.331Z,98246.94
2018-02-11T04:05:55.577Z,98239.34
2018-02-11T04:08:23.875Z,98226.44
2018-02-11T04:10:52.127Z,98224.39
2018-02-11T04:13:20.414Z,98205.85
2018-02-11T04:15:48.690Z,98195.41
2018-02-11T04:18:17.001Z,98172.92
2018-02-11T04:20:45.277Z,98180.25
2018-02-11T04:23:13.553Z,98209.21
2018-02-11T04:25:41.877Z,98204.23
2018-02-11T04:28:10.164Z,98216.00
2018-02-11T04:30:38.434Z,98212.98
2018-02-11T04:33:06.919Z,98202.42
2018-02-11T04:35:35.227Z,98177.25
2018-02-11T04:38:03.486Z,98178.77
2018-02-11T04:40:31.783Z,98174.63
2018-02-11T04:43:00.107Z,98160.64
2018-02-11T04:45:28.422Z,98150.73
2018-02-11T04:47:56.694Z,98144.81
2018-02-11T04:50:24.998Z,98138.53
2018-02-11T04:52:53.256Z,98126.69
2018-02-11T04:55:21.529Z,98131.91
2018-02-11T04:57:49.835Z,98129.05
2018-02-11T05:00:18.108Z,98127.66
2018-02-11T05:02:46.393Z,98135.18
2018-02-11T05:05:14.661Z,98126.24
2018-02-11T05:07:42.951Z,98127.34
2018-02-11T05:10:11.228Z,98125.44
2018-02-11T05:12:39.516Z,98123.92
2018-02-11T05:15:07.776Z,98105.47
2018-02-11T05:17:36.074Z,98106.41
2018-02-11T05:20:04.830Z,98092.46
2018-02-11T05:22:33.123Z,98103.14
2018-02-11T05:25:01.373Z,98106.95
2018-02-11T05:27:29.946Z,98098.97
2018-02-11T05:29:58.216Z,98081.34
2018-02-11T05:32:26.466Z,98082.35
2018-02-11T05:34:54.751Z,98078.03
2018-02-11T05:37:23.035Z,98064.95
2018-02-11T05:39:51.326Z,98062.75
2018-02-11T05:42:19.592Z,98053.66
2018-02-11T05:44:47.898Z,98045.41
2018-02-11T05:47:16.166Z,98033.61
2018-02-11T05:49:44.469Z,98032.15
2018-02-11T05:52:12.778Z,98034.84
2018-02-11T05:54:41.028Z,98031.59
2018-02-11T05:57:09.340Z,98032.91
2018-02-11T05:59:37.577Z,98026.71
2018-02-11T06:02:05.880Z,98034.97
2018-02-11T06:04:34.176Z,98022.28
2018-02-11T06:07:02.486Z,98017.08
2018-02-11T06:09:30.774Z,98017.72
2018-02-11T06:11:59.110Z,98012.82
2018-02-11T06:14:27.390Z,98009.83
2018-02-11T06:16:55.693Z,98006.08
2018-02-11T06:19:23.975Z,98007.70
2018-02-11T06:21:52.236Z,98002.95
2018-02-11T06:24:20.522Z,97997.23
2018-02-11T06:26:48.789Z,97997.62
2018-02-11T06:29:17.075Z,98002.19
2018-02-11T06:31:45.349Z,97994.50
2018-02-11T06:34:13.640Z,97985.97
2018-02-11T06:36:41.898Z,97984.20
2018-02-11T06:39:10.179Z,97977.81
2018-02-11T06:41:38.451Z,97983.52
2018-02-11T06:44:06.736Z,97979.61
2018-02-11T06:46:35.004Z,97970.77
2018-02-11T06:49:03.348Z,97976.20
2018-02-11T06:51:31.624Z,97969.94
2018-02-11T06:53:59.907Z,97968.27
2018-02-11T06:56:28.207Z,97974.78
2018-02-11T06:58:56.488Z,97973.98
2018-02-11T07:01:24.769Z,97979.99
2018-02-11T07:03:53.047Z,97973.44
2018-02-11T07:06:21.337Z,97978.83
2018-02-11T07:08:49.615Z,97970.50
2018-02-11T07:11:17.914Z,97954.13
2018-02-11T07:13:46.163Z,97960.81
2018-02-11T07:16:14.524Z,97964.34
2018-02-11T07:18:42.821Z,97959.55
2018-02-11T07:21:11.103Z,97954.09
2018-02-11T07:23:39.421Z,97939.05
2018-02-11T07:26:07.700Z,97947.58
2018-02-11T07:28:36.002Z,97951.39
2018-02-11T07:31:05.117Z,97954.96
2018-02-11T07:33:33.395Z,97948.93
2018-02-11T07:36:01.667Z,97949.53
2018-02-11T07:38:29.944Z,97955.20
2018-02-11T07:40:59.019Z,97950.46
2018-02-11T07:43:27.324Z,97942.67
2018-02-11T07:45:55.594Z,97943.30
2018-02-11T07:48:23.875Z,97946.41
2018-02-11T07:50:52.169Z,97939.89
2018-02-11T07:53:20.467Z,97946.25
2018-02-11T07:55:49.403Z,97905.91
2018-02-11T07:58:17.668Z,97938.59
2018-02-11T08:00:45.956Z,97945.37
2018-02-11T08:03:14.226Z,97956.48
2018-02-11T08:05:42.511Z,97948.30
2018-02-11T08:08:10.771Z,97944.73
2018-02-11T08:10:39.062Z,97934.66
2018-02-11T08:13:07.334Z,97949.38
2018-02-11T08:15:35.607Z,97943.87
2018-02-11T08:18:03.936Z,97939.86
2018-02-11T08:20:32.259Z,97944.16
2018-02-11T08:23:00.531Z,97944.74
2018-02-11T08:25:29.027Z,97941.48
2018-02-11T08:27:57.574Z,97938.61
2018-02-11T08:30:25.831Z,97938.23
2018-02-11T08:32:54.124Z,97946.08
2018-02-11T08:35:22.391Z,97941.88
2018-02-11T08:37:50.690Z,97938.03
2018-02-11T08:40:18.986Z,97932.70
2018-02-11T08:42:47.658Z,97936.69
2018-02-11T08:45:15.942Z,97937.86
2018-02-11T08:47:44.203Z,97945.94
2018-02-11T08:50:12.490Z,97934.63
2018-02-11T08:52:40.786Z,97912.63
2018-02-11T08:55:09.106Z,97934.11
2018-02-11T08:57:37.371Z,97927.16
2018-02-11T09:00:05.680Z,97929.19
2018-02-11T09:02:33.964Z,97938.44
2018-02-11T09:05:02.321Z,97928.80
2018-02-11T09:07:30.590Z,97936.77
2018-02-11T09:09:58.963Z,97933.41
2018-02-11T09:12:27.223Z,97932.13
2018-02-11T09:14:55.513Z,97942.20
2018-02-11T09:17:23.852Z,97919.97
2018-02-11T09:19:52.091Z,97923.41
2018-02-11T09:22:20.418Z,97919.42
2018-02-11T09:24:48.750Z,97921.13
2018-02-11T09:27:17.017Z,97915.97
2018-02-11T09:29:45.294Z,97910.44
2018-02-11T09:32:13.567Z,97911.53
2018-02-11T09:34:41.850Z,97906.70
2018-02-11T09:37:10.148Z,97907.43
2018-02-11T09:39:38.447Z,97906.56
2018-02-11T09:42:06.746Z,97905.39
2018-02-11T09:44:35.066Z,97906.67
2018-02-11T09:47:03.325Z,97894.38
2018-02-11T09:49:31.630Z,97899.64
2018-02-11T09:51:59.919Z,97901.16
2018-02-11T09:54:28.236Z,97897.09
2018-02-11T09:56:56.488Z,97896.48
2018-02-11T09:59:24.775Z,97908.27
2018-02-11T10:01:53.063Z,97903.92
2018-02-11T10:04:21.357Z,97899.31
2018-02-11T10:06:49.642Z,97902.62
2018-02-11T10:09:17.926Z,97901.16
2018-02-11T10:11:46.215Z,97900.45
2018-02-11T10:14:14.499Z,97901.28
2018-02-11T10:16:42.775Z,97898.30
2018-02-11T10:19:11.065Z,97902.91
2018-02-11T10:21:39.346Z,97887.78
2018-02-11T10:24:07.626Z,97889.30
2018-02-11T10:26:35.914Z,97893.03
2018-02-11T10:29:04.265Z,97888.51
2018-02-11T10:31:32.570Z,97891.95
2018-02-11T10:34:00.910Z,97893.48
2018-02-11T10:36:29.156Z,97896.45
2018-02-11T10:38:57.450Z,97883.08
2018-02-11T10:41:25.740Z,97887.69
2018-02-11T10:43:54.023Z,97888.63
2018-02-11T10:46:22.284Z,97878.36
2018-02-11T10:48:50.587Z,97871.39
2018-02-11T10:51:18.831Z,97881.71
2018-02-11T10:53:47.176Z,97859.66
2018-02-11T10:56:15.862Z,97870.84
2018-02-11T10:58:44.545Z,97864.52
2018-02-11T11:01:12.827Z,97865.26
2018-02-11T11:03:41.117Z,97864.89
2018-02-11T11:06:09.469Z,97869.49
2018-02-11T11:08:37.721Z,97862.08
2018-02-11T11:11:06.035Z,97872.09
2018-02-11T11:13:34.334Z,97860.34
2018-02-11T11:16:02.650Z,97867.70
2018-02-11T11:18:30.899Z,97874.73
2018-02-11T11:20:59.202Z,97874.55
2018-02-11T11:23:27.487Z,97876.63
2018-02-11T11:25:55.796Z,97883.08
2018-02-11T11:28:24.079Z,97882.67
2018-02-11T11:30:52.374Z,97879.34
2018-02-11T11:33:21.738Z,97893.15
2018-02-11T11:35:50.026Z,97870.99
2018-02-11T11:38:18.334Z,97867.92
2018-02-11T11:40:46.625Z,97875.43
2018-02-11T11:43:14.922Z,97879.94
2018-02-11T11:45:43.179Z,97873.55
2018-02-11T11:48:11.507Z,97873.61
2018-02-11T11:50:39.763Z,97873.78
2018-02-11T11:53:08.060Z,97871.67
2018-02-11T11:55:36.398Z,97878.98
2018-02-11T11:58:05.568Z,97878.80
2018-02-11T12:00:33.859Z,97872.02
2018-02-11T12:03:02.116Z,97871.73
2018-02-11T12:05:31.236Z,97870.81
2018-02-11T12:07:59.539Z,97879.29
2018-02-11T12:10:27.833Z,97865.62
2018-02-11T12:12:56.963Z,97867.20
2018-02-11T12:15:25.240Z,97862.75
2018-02-11T12:17:53.544Z,97857.98
2018-02-11T12:20:21.824Z,97837.86
2018-02-11T12:22:50.099Z,97852.50
2018-02-11T12:25:18.375Z,97842.06
2018-02-11T12:27:46.652Z,97856.61
2018-02-11T12:30:14.959Z,97856.88
2018-02-11T12:32:43.290Z,97836.36
2018-02-11T12:35:11.558Z,97821.31
2018-02-11T12:37:40.099Z,97832.50
2018-02-11T12:40:08.429Z,97833.94
2018-02-11T12:42:36.680Z,97831.36
2018-02-11T12:45:05.719Z,97831.58
2018-02-11T12:47:33.995Z,97834.47
2018-02-11T12:50:02.264Z,97825.17
2018-02-11T12:52:31.392Z,97832.70
2018-02-11T12:54:59.712Z,97819.78
2018-02-11T12:57:27.979Z,97826.64
2018-02-11T12:59:56.259Z,97817.55
2018-02-11T13:02:24.599Z,97821.97
2018-02-11T13:04:52.883Z,97819.14
2018-02-11T13:07:21.159Z,97830.61
2018-02-11T13:09:49.468Z,97819.26
2018-02-11T13:12:17.764Z,97816.53
2018-02-11T13:14:46.011Z,97815.92
2018-02-11T13:17:14.304Z,97823.97
2018-02-11T13:19:43.446Z,97829.13
2018-02-11T13:22:11.742Z,97823.20
2018-02-11T13:24:40.049Z,97826.81
2018-02-11T13:27:08.364Z,97827.59
2018-02-11T13:29:36.640Z,97829.77
2018-02-11T13:32:05.495Z,97819.13
2018-02-11T13:34:33.779Z,97821.91
2018-02-11T13:37:02.040Z,97822.98
2018-02-11T13:39:30.306Z,97818.11
2018-02-11T13:41:58.726Z,97822.24
2018-02-11T13:44:26.963Z,97822.94
2018-02-11T13:46:55.253Z,97811.13
2018-02-11T13:49:23.562Z,97833.53
2018-02-11T13:51:51.863Z,97824.64
2018-02-11T13:54:20.183Z,97823.98
2018-02-11T13:56:48.459Z,97817.35
2018-02-11T13:59:16.735Z,97829.93
2018-02-11T14:01:45.031Z,97829.52
2018-02-11T14:04:13.313Z,97835.44
2018-02-11T14:06:41.626Z,97833.02
2018-02-11T14:09:09.924Z,97835.97
2018-02-11T14:11:38.183Z,97831.87
2018-02-11T14:14:06.480Z,97822.57
2018-02-11T14:16:34.750Z,97823.41
2018-02-11T14:19:03.061Z,97829.77
2018-02-11T14:21:31.354Z,97823.83
2018-02-11T14:23:59.653Z,97829.13
2018-02-11T14:26:27.941Z,97830.14
2018-02-11T14:28:56.291Z,97825.23
2018-02-11T14:31:24.594Z,97831.76
2018-02-11T14:33:52.887Z,97816.89
2018-02-11T14:36:21.163Z,97832.68
2018-02-11T14:38:49.456Z,97837.67
2018-02-11T14:41:17.774Z,97837.09
2018-02-11T14:43:46.052Z,97825.02
2018-02-11T14:46:14.384Z,97826.77
2018-02-11T14:48:42.646Z,97837.85
2018-02-11T14:51:10.936Z,97830.95
2018-02-11T14:53:39.559Z,97829.53
2018-02-11T14:56:07.864Z,97833.15
2018-02-11T14:58:36.147Z,97834.61
2018-02-11T15:01:04.415Z,97829.51
2018-02-11T15:03:32.717Z,97826.48
2018-02-11T15:06:00.988Z,97830.77
2018-02-11T15:08:29.269Z,97836.70
2018-02-11T15:10:57.539Z,97842.46
2018-02-11T15:13:25.852Z,97838.44
2018-02-11T15:15:54.128Z,97839.13
2018-02-11T15:18:22.388Z,97839.27
2018-02-11T15:20:50.662Z,97838.61
2018-02-11T15:23:18.932Z,97850.26
2018-02-11T15:25:47.228Z,97853.10
2018-02-11T15:28:15.835Z,97845.23
2018-02-11T15:30:44.158Z,97849.59
2018-02-11T15:33:12.445Z,97865.53
2018-02-11T15:35:40.762Z,97864.75
2018-02-11T15:38:08.995Z,97864.22
2018-02-11T15:40:37.283Z,97871.73
2018-02-11T15:43:05.564Z,97871.39
2018-02-11T15:45:33.878Z,97869.12
2018-02-11T15:48:02.147Z,97865.28
2018-02-11T15:50:30.456Z,97867.10
2018-02-11T15:52:58.735Z,97872.89
2018-02-11T15:55:27.014Z,97870.55
2018-02-11T15:57:55.298Z,97880.86
2018-02-11T16:00:23.574Z,97884.78
2018-02-11T16:02:51.849Z,97876.94
2018-02-11T16:05:20.117Z,97880.69
2018-02-11T16:07:48.458Z,97877.31
2018-02-11T16:10:16.691Z,97868.05
2018-02-11T16:12:44.976Z,97874.73
2018-02-11T16:15:13.238Z,97877.25
2018-02-11T16:17:41.551Z,97875.14
2018-02-11T16:20:09.846Z,97880.76
2018-02-11T16:22:38.121Z,97882.72
2018-02-11T16:25:06.412Z,97887.42
2018-02-11T16:27:34.696Z,97887.55
2018-02-11T16:30:03.050Z,97893.01
2018-02-11T16:32:31.299Z,97877.13
2018-02-11T16:34:59.732Z,97895.64
2018-02-11T16:37:28.001Z,97897.48
2018-02-11T16:39:56.240Z,97913.97
2018-02-11T16:42:24.551Z,97911.84
2018-02-11T16:44:52.834Z,97924.11
2018-02-11T16:47:21.153Z,97921.41
2018-02-11T16:49:49.424Z,97925.33
2018-02-11T16:52:17.690Z,97924.45
2018-02-11T16:54:45.953Z,97926.97
2018-02-11T16:57:14.231Z,97928.19
2018-02-11T16:59:42.491Z,97923.13
2018-02-11T17:02:10.749Z,97917.73
2018-02-11T17:04:39.043Z,97921.02
2018-02-11T17:07:07.315Z,97918.13
2018-02-11T17:09:35.590Z,97924.28
2018-02-11T17:12:03.873Z,97930.05
2018-02-11T17:14:32.143Z,97926.27
2018-02-11T17:17:00.448Z,97939.88
2018-02-11T17:19:28.697Z,97938.39
2018-02-11T17:21:56.968Z,97946.68
2018-02-11T17:24:25.243Z,97953.06
2018-02-11T17:26:53.569Z,97950.97
2018-02-11T17:29:21.822Z,97948.33
2018-02-11T17:31:50.128Z,97949.50
2018-02-11T17:34:18.410Z,97946.36
2018-02-11T17:36:46.729Z,97948.09
2018-02-11T17:39:15.007Z,97963.91
2018-02-11T17:41:43.301Z,97963.14
2018-02-11T17:44:11.547Z,97963.09
2018-02-11T17:46:39.987Z,97960.85
2018-02-11T17:49:08.305Z,97960.59
2018-02-11T17:51:36.543Z,97969.48
2018-02-11T17:54:04.886Z,97970.78
2018-02-11T17:56:33.132Z,97965.20
2018-02-11T17:59:01.388Z,97970.94
2018-02-11T18:01:29.671Z,97969.58
2018-02-11T18:03:57.915Z,97972.37
2018-02-11T18:06:26.196Z,97979.93
2018-02-11T18:08:54.449Z,97984.14
2018-02-11T18:11:22.763Z,97986.75
2018-02-11T18:13:50.983Z,97983.31
2018-02-11T18:16:19.306Z,97993.27
2018-02-11T18:18:47.570Z,97995.09
2018-02-11T18:21:15.824Z,97994.05
2018-02-11T18:23:44.162Z,97994.78
2018-02-11T18:26:12.426Z,97996.69
2018-02-11T18:28:41.780Z,98004.77
2018-02-11T18:31:10.073Z,97994.70
2018-02-11T18:33:38.380Z,98007.98
2018-02-11T18:36:06.637Z,98008.48
2018-02-11T18:38:34.907Z,98003.28
2018-02-11T18:41:03.179Z,98008.69
2018-02-11T18:43:31.497Z,98005.05
2018-02-11T18:45:59.798Z,98012.27
2018-02-11T18:48:28.075Z,98018.64
2018-02-11T18:50:56.416Z,98024.19
2018-02-11T18:53:25.456Z,98025.49
2018-02-11T18:55:53.746Z,98036.72
2018-02-11T18:58:22.023Z,98037.28
2018-02-11T19:00:50.345Z,98037.32
2018-02-11T19:03:18.756Z,98041.07
2018-02-11T19:05:47.053Z,98032.25
2018-02-11T19:08:15.327Z,98036.46
2018-02-11T19:10:43.641Z,98040.23
2018-02-11T19:13:12.194Z,98038.16
2018-02-11T19:15:40.466Z,98042.44
2018-02-11T19:18:08.738Z,98044.23
2018-02-11T19:20:37.026Z,98050.22
2018-02-11T19:23:05.288Z,98045.25
2018-02-11T19:25:33.644Z,98047.97
2018-02-11T19:28:01.935Z,98054.48
2018-02-11T19:30:30.240Z,98056.62
2018-02-11T19:32:58.546Z,98051.39
2018-02-11T19:35:26.830Z,98055.85
2018-02-11T19:37:55.101Z,98060.27
2018-02-11T19:40:23.404Z,98062.88
2018-02-11T19:42:51.687Z,98062.63
2018-02-11T19:45:20.060Z,98061.20
2018-02-11T19:47:48.363Z,98054.02
2018-02-11T19:50:16.640Z,98057.97
2018-02-11T19:52:44.938Z,98062.41
2018-02-11T19:55:14.192Z,98061.95
2018-02-11T19:57:42.482Z,98060.86
2018-02-11T20:00:10.764Z,98070.11
2018-02-11T20:02:40.423Z,98065.73
2018-02-11T20:05:08.731Z,98060.95
2018-02-11T20:07:36.988Z,98063.03
2018-02-11T20:10:05.278Z,98072.77
2018-02-11T20:12:33.604Z,98073.16
2018-02-11T20:15:01.872Z,98066.22
2018-02-11T20:17:30.141Z,98075.55
2018-02-11T20:19:58.505Z,98074.64
2018-02-11T20:22:29.014Z,98066.19
2018-02-11T20:24:57.361Z,98070.88
2018-02-11T20:27:25.639Z,98072.05
2018-02-11T20:29:53.899Z,98065.94
2018-02-11T20:32:22.205Z,98072.39
2018-02-11T20:34:50.477Z,98070.65
2018-02-11T20:37:18.788Z,98071.53
2018-02-11T20:39:47.035Z,98074.75
2018-02-11T20:42:15.321Z,98080.41
2018-02-11T20:44:43.621Z,98086.95
2018-02-11T20:47:11.867Z,98090.91
2018-02-11T20:49:40.187Z,98097.00
2018-02-11T20:52:08.464Z,98091.20
2018-02-11T20:54:36.734Z,98083.37
2018-02-11T20:57:05.050Z,98089.41
2018-02-11T20:59:33.296Z,98088.06
2018-02-11T21:02:01.613Z,98084.88
2018-02-11T21:04:29.916Z,98085.56
2018-02-11T21:06:58.210Z,98089.98
2018-02-11T21:09:26.497Z,98093.67
2018-02-11T21:11:55.239Z,98087.70
2018-02-11T21:14:23.520Z,98095.80
2018-02-11T21:16:51.829Z,98099.05
2018-02-11T21:19:20.111Z,98115.84
2018-02-11T21:21:48.389Z,98119.80
2018-02-11T21:24:16.676Z,98123.34
2018-02-11T21:26:44.943Z,98128.23
2018-02-11T21:29:13.234Z,98126.81
2018-02-11T21:31:41.479Z,98123.66
2018-02-11T21:34:09.793Z,98117.52
2018-02-11T21:36:38.058Z,98108.83
2018-02-11T21:39:06.422Z,98090.28
2018-02-11T21:41:34.663Z,98105.27
2018-02-11T21:44:03.082Z,98110.53
2018-02-11T21:46:31.347Z,98112.52
2018-02-11T21:48:59.649Z,98110.67
2018-02-11T21:51:27.914Z,98119.81
2018-02-11T21:53:57.393Z,98126.19
2018-02-11T21:56:25.702Z,98133.63
2018-02-11T21:58:53.943Z,98142.59
2018-02-11T22:01:22.212Z,98135.61
2018-02-11T22:03:50.520Z,98132.27
2018-02-11T22:06:18.805Z,98139.06
2018-02-11T22:08:47.069Z,98141.02
2018-02-11T22:11:15.356Z,98145.72
2018-02-11T22:13:43.627Z,98141.48
2018-02-11T22:16:11.896Z,98122.69
2018-02-11T22:18:40.206Z,98148.54
2018-02-11T22:21:08.461Z,98151.49
2018-02-11T22:23:36.738Z,98150.98
2018-02-11T22:26:05.013Z,98152.62
2018-02-11T22:28:33.283Z,98159.08
2018-02-11T22:31:01.582Z,98163.81
2018-02-11T22:33:30.015Z,98152.01
2018-02-11T22:35:58.307Z,98163.85
2018-02-11T22:38:30.559Z,98156.77
2018-02-11T22:40:58.887Z,98160.08
2018-02-11T22:43:27.119Z,98156.16
2018-02-11T22:45:55.405Z,98159.06
2018-02-11T22:48:23.684Z,98166.11
2018-02-11T22:50:52.005Z,98166.58
2018-02-11T22:53:20.237Z,98165.82
2018-02-11T22:55:48.551Z,98159.16
2018-02-11T22:58:16.886Z,98165.81
2018-02-11T23:00:45.257Z,98171.37
2018-02-11T23:03:13.545Z,98174.42
2018-02-11T23:05:41.828Z,98170.69
2018-02-11T23:08:10.111Z,98172.75
2018-02-11T23:10:38.380Z,98169.80
2018-02-11T23:13:06.675Z,98169.04
2018-02-11T23:15:35.135Z,98166.17
2018-02-11T23:18:03.392Z,98168.97
2018-02-11T23:20:31.755Z,98179.24
2018-02-11T23:23:00.060Z,98173.94
2018-02-11T23:25:28.346Z,98174.45
2018-02-11T23:27:56.631Z,98163.38
2018-02-11T23:30:24.889Z,98173.21
2018-02-11T23:32:53.227Z,98178.77
2018-02-11T23:35:21.514Z,98186.88
2018-02-11T23:37:49.806Z,98181.41
2018-02-11T23:40:18.313Z,98186.41
2018-02-11T23:42:46.640Z,98199.17
2018-02-11T23:45:15.062Z,98192.48
2018-02-11T23:47:43.287Z,98197.58
2018-02-11T23:50:11.591Z,98196.75
2018-02-11T23:52:39.880Z,98198.54
2018-02-11T23:55:08.175Z,98204.56
2018-02-11T23:57:36.435Z,98205.81
